Time;durP1;ratioP1;P1;durP2;ratioP2;P2;SDS_P1;SDS_P2;PMS_P1;PMS_P2;Temp;Humidity;BMP_temperature;BMP_pressure;BME280_temperature;BME280_humidity;BME280_pressure;Samples;Min_cycle;Max_cycle;Signal;HPM_P1;HPM_P2
2021/10/22 00:01:56;;;;;;;4.60;2.33;;;;;;;;;;5067685;28;20046;-53
2021/10/22 00:04:23;;;;;;;4.82;2.15;;;;;;;;;;5069425;28;20124;-54
2021/10/22 00:06:49;;;;;;;3.00;1.77;;;;;;;;;;5069852;28;20098;-55
2021/10/22 00:09:16;;;;;;;4.07;1.92;;;;;;;;;;5068903;28;20575;-54
2021/10/22 00:11:44;;;;;;;2.17;1.75;;;;;;;;;;5069402;28;20044;-54
2021/10/22 00:14:13;;;;;;;4.18;1.90;;;;;;;;;;5066230;28;20334;-54
2021/10/22 00:16:40;;;;;;;2.35;1.88;;;;;;;;;;5069643;28;20036;-54
2021/10/22 00:19:07;;;;;;;5.97;2.17;;;;;;;;;;5068036;28;20063;-55
2021/10/22 00:21:34;;;;;;;4.55;1.95;;;;;;;;;;5068970;28;20048;-54
2021/10/22 00:24:01;;;;;;;2.83;1.80;;;;;;;;;;5066097;28;20044;-55
2021/10/22 00:26:28;;;;;;;8.10;2.65;;;;;;;;;;5067208;28;20047;-54
2021/10/22 00:28:55;;;;;;;6.05;1.90;;;;;;;;;;5056935;28;20049;-56
2021/10/22 00:31:22;;;;;;;2.85;1.60;;;;;;;;;;5069484;28;20048;-55
2021/10/22 00:33:50;;;;;;;5.28;1.98;;;;;;;;;;5070424;28;20033;-53
2021/10/22 00:36:17;;;;;;;1.67;1.60;;;;;;;;;;5070259;28;20131;-54
2021/10/22 00:38:44;;;;;;;4.85;2.17;;;;;;;;;;5066059;28;20093;-53
2021/10/22 00:41:15;;;;;;;3.50;2.65;;;;;;;;;;5062089;28;20024;-54
2021/10/22 00:43:42;;;;;;;2.13;1.70;;;;;;;;;;5070756;28;20128;-55
2021/10/22 00:46:08;;;;;;;4.03;1.77;;;;;;;;;;5068838;28;20041;-54
2021/10/22 00:48:36;;;;;;;4.50;2.38;;;;;;;;;;5068665;28;20037;-54
2021/10/22 00:51:03;;;;;;;2.13;1.50;;;;;;;;;;5064545;28;20068;-54
2021/10/22 00:53:30;;;;;;;3.30;1.80;;;;;;;;;;5056784;28;20047;-55
2021/10/22 00:55:57;;;;;;;4.97;1.92;;;;;;;;;;5070119;28;20457;-53
2021/10/22 00:58:24;;;;;;;3.10;2.33;;;;;;;;;;5065373;28;20044;-54
2021/10/22 01:00:50;;;;;;;4.13;2.38;;;;;;;;;;5068338;28;20509;-54
2021/10/22 01:03:17;;;;;;;2.45;1.60;;;;;;;;;;5068394;28;20115;-53
2021/10/22 01:05:45;;;;;;;2.55;1.70;;;;;;;;;;5067557;28;20048;-53
2021/10/22 01:08:12;;;;;;;3.25;2.28;;;;;;;;;;5064196;28;20040;-55
2021/10/22 01:10:39;;;;;;;3.30;2.60;;;;;;;;;;5068395;28;20538;-54
2021/10/22 01:13:06;;;;;;;5.43;2.95;;;;;;;;;;5061273;28;20055;-54
2021/10/22 01:15:34;;;;;;;5.72;2.40;;;;;;;;;;5068753;28;20500;-55
2021/10/22 01:18:02;;;;;;;5.75;2.17;;;;;;;;;;5066028;28;20033;-54
2021/10/22 01:20:29;;;;;;;3.20;2.20;;;;;;;;;;5063840;28;20497;-55
2021/10/22 01:22:56;;;;;;;4.18;2.00;;;;;;;;;;5065854;28;20040;-55
2021/10/22 01:25:24;;;;;;;3.72;2.00;;;;;;;;;;5061823;28;20086;-55
2021/10/22 01:27:51;;;;;;;4.82;1.92;;;;;;;;;;5068165;28;20047;-54
2021/10/22 01:30:19;;;;;;;5.25;2.40;;;;;;;;;;5068453;28;20075;-54
2021/10/22 01:32:49;;;;;;;5.40;2.45;;;;;;;;;;5056614;28;20098;-54
2021/10/22 01:35:16;;;;;;;6.22;2.28;;;;;;;;;;5062902;28;20576;-54
2021/10/22 01:37:43;;;;;;;4.97;1.90;;;;;;;;;;5061700;28;20041;-54
2021/10/22 01:40:10;;;;;;;3.13;2.30;;;;;;;;;;5064904;28;20048;-54
2021/10/22 01:42:37;;;;;;;2.72;2.28;;;;;;;;;;5067136;28;20461;-54
2021/10/22 01:45:04;;;;;;;1.98;1.88;;;;;;;;;;5068367;28;20044;-55
2021/10/22 01:47:31;;;;;;;3.20;1.83;;;;;;;;;;5066471;28;20052;-54
2021/10/22 01:49:58;;;;;;;3.50;2.15;;;;;;;;;;5066912;28;20094;-54
2021/10/22 01:52:25;;;;;;;3.33;2.00;;;;;;;;;;5065202;28;20040;-53
2021/10/22 01:54:52;;;;;;;4.32;1.63;;;;;;;;;;5063070;28;20036;-54
2021/10/22 01:57:19;;;;;;;3.63;2.70;;;;;;;;;;5051574;28;20395;-55
2021/10/22 01:59:49;;;;;;;7.18;1.80;;;;;;;;;;5067729;28;20037;-54
2021/10/22 02:02:16;;;;;;;2.53;2.00;;;;;;;;;;5066758;28;20037;-55
2021/10/22 02:04:43;;;;;;;3.42;1.80;;;;;;;;;;5054912;28;20657;-53
2021/10/22 02:07:10;;;;;;;2.90;2.15;;;;;;;;;;5061924;28;20044;-54
2021/10/22 02:09:37;;;;;;;4.88;2.28;;;;;;;;;;5067934;28;20041;-55
2021/10/22 02:12:04;;;;;;;4.40;1.92;;;;;;;;;;5061707;28;20025;-54
2021/10/22 02:14:31;;;;;;;5.50;2.53;;;;;;;;;;5064333;28;20046;-54
2021/10/22 02:16:58;;;;;;;3.72;2.15;;;;;;;;;;5057983;28;20043;-55
2021/10/22 02:19:25;;;;;;;3.75;2.78;;;;;;;;;;5067864;28;20052;-55
2021/10/22 02:21:52;;;;;;;4.18;2.80;;;;;;;;;;5070247;28;20033;-54
2021/10/22 02:24:18;;;;;;;4.63;2.10;;;;;;;;;;5069755;28;20516;-53
2021/10/22 02:26:45;;;;;;;4.65;2.30;;;;;;;;;;5070498;28;20049;-53
2021/10/22 02:29:13;;;;;;;5.30;2.20;;;;;;;;;;5071763;28;20048;-54
2021/10/22 02:31:40;;;;;;;3.20;1.90;;;;;;;;;;5068746;28;20044;-54
2021/10/22 02:34:06;;;;;;;4.07;2.85;;;;;;;;;;5064951;28;20025;-54
2021/10/22 02:36:33;;;;;;;3.33;2.08;;;;;;;;;;5071959;28;20515;-55
2021/10/22 02:39:00;;;;;;;2.20;2.03;;;;;;;;;;5071293;28;20548;-54
2021/10/22 02:41:26;;;;;;;2.50;1.67;;;;;;;;;;5070974;28;20075;-54
2021/10/22 02:43:53;;;;;;;7.32;2.35;;;;;;;;;;5071207;28;20036;-55
2021/10/22 02:46:20;;;;;;;6.20;2.88;;;;;;;;;;5069333;28;20033;-55
2021/10/22 02:48:46;;;;;;;4.55;1.95;;;;;;;;;;5071916;28;20024;-55
2021/10/22 02:51:13;;;;;;;2.50;1.73;;;;;;;;;;5071213;28;20047;-55
2021/10/22 02:53:40;;;;;;;3.83;1.90;;;;;;;;;;5071554;28;20052;-55
2021/10/22 02:56:07;;;;;;;3.17;2.20;;;;;;;;;;5067298;28;20041;-54
2021/10/22 02:58:34;;;;;;;2.70;1.65;;;;;;;;;;5071034;28;20048;-54
2021/10/22 03:01:00;;;;;;;9.07;3.10;;;;;;;;;;5072772;28;20044;-53
2021/10/22 03:03:27;;;;;;;2.65;2.13;;;;;;;;;;5069774;28;20477;-55
2021/10/22 03:05:54;;;;;;;4.88;3.28;;;;;;;;;;5071296;28;20400;-54
2021/10/22 03:08:20;;;;;;;3.47;1.80;;;;;;;;;;5071656;28;20044;-53
2021/10/22 03:10:47;;;;;;;5.80;2.45;;;;;;;;;;5064817;28;20036;-55
2021/10/22 03:13:14;;;;;;;2.60;2.40;;;;;;;;;;5072583;28;20040;-55
2021/10/22 03:15:40;;;;;;;9.10;2.35;;;;;;;;;;5069344;28;20033;-54
2021/10/22 03:18:07;;;;;;;3.08;2.88;;;;;;;;;;5069945;28;20032;-55
2021/10/22 03:20:35;;;;;;;3.83;2.47;;;;;;;;;;5072113;28;20048;-55
2021/10/22 03:23:03;;;;;;;2.08;1.98;;;;;;;;;;5066314;28;20063;-54
2021/10/22 03:25:30;;;;;;;4.60;2.65;;;;;;;;;;5063758;28;20036;-54
2021/10/22 03:28:06;;;;;;;3.85;2.45;;;;;;;;;;5067659;28;20358;-54
2021/10/22 03:30:33;;;;;;;6.00;2.35;;;;;;;;;;5070467;28;20072;-55
2021/10/22 03:33:01;;;;;;;2.42;2.17;;;;;;;;;;5067171;28;20043;-55
2021/10/22 03:35:28;;;;;;;6.15;2.45;;;;;;;;;;5070223;28;20040;-54
2021/10/22 03:37:55;;;;;;;4.85;2.25;;;;;;;;;;5054835;28;20052;-54
2021/10/22 03:40:22;;;;;;;2.70;2.35;;;;;;;;;;5071224;28;20063;-54
2021/10/22 03:42:52;;;;;;;5.07;2.35;;;;;;;;;;5062006;28;20052;-54
2021/10/22 03:45:19;;;;;;;2.85;2.63;;;;;;;;;;5059591;28;20047;-54
2021/10/22 03:47:46;;;;;;;6.60;2.10;;;;;;;;;;5068142;28;20036;-55
2021/10/22 03:50:13;;;;;;;7.43;2.78;;;;;;;;;;5054245;28;20509;-55
2021/10/22 03:52:40;;;;;;;2.80;2.47;;;;;;;;;;5069642;28;20124;-54
2021/10/22 03:55:07;;;;;;;7.95;2.72;;;;;;;;;;5069757;28;20033;-54
2021/10/22 03:57:33;;;;;;;3.67;2.30;;;;;;;;;;5062120;28;20501;-55
2021/10/22 04:00:02;;;;;;;2.88;2.72;;;;;;;;;;5064979;28;20044;-54
2021/10/22 04:02:28;;;;;;;6.18;2.00;;;;;;;;;;5070086;28;20040;-55
2021/10/22 04:04:56;;;;;;;6.28;2.78;;;;;;;;;;5065007;28;20499;-53
2021/10/22 04:07:23;;;;;;;4.30;3.08;;;;;;;;;;5069410;28;20587;-55
2021/10/22 04:09:50;;;;;;;8.27;3.10;;;;;;;;;;5064442;28;20048;-54
2021/10/22 04:12:17;;;;;;;7.75;2.90;;;;;;;;;;5067511;28;20040;-54
2021/10/22 04:14:43;;;;;;;3.97;2.50;;;;;;;;;;5069321;28;20043;-55
2021/10/22 04:17:10;;;;;;;4.90;2.67;;;;;;;;;;5070297;28;20098;-55
2021/10/22 04:19:39;;;;;;;2.78;2.42;;;;;;;;;;5067628;28;20094;-54
2021/10/22 04:22:06;;;;;;;4.35;3.28;;;;;;;;;;5054272;28;20086;-55
2021/10/22 04:24:33;;;;;;;6.30;2.88;;;;;;;;;;5065481;28;20024;-54
2021/10/22 04:27:01;;;;;;;4.88;3.45;;;;;;;;;;5065168;28;20095;-55
2021/10/22 04:29:28;;;;;;;4.50;3.50;;;;;;;;;;5061752;28;20037;-54
2021/10/22 04:31:55;;;;;;;5.00;2.97;;;;;;;;;;5062212;28;20033;-54
2021/10/22 04:34:26;;;;;;;4.75;4.30;;;;;;;;;;5053774;28;20099;-54
2021/10/22 04:36:52;;;;;;;3.15;2.75;;;;;;;;;;5068401;28;20736;-55
2021/10/22 04:42:04;;;;;;;2.75;2.45;;;;;;;;;;5066959;28;20058;-54
2021/10/22 04:44:31;;;;;;;3.97;3.67;;;;;;;;;;5066776;28;20123;-53
2021/10/22 04:46:58;;;;;;;8.82;2.92;;;;;;;;;;5069582;28;20145;-55
2021/10/22 04:49:25;;;;;;;5.53;2.75;;;;;;;;;;5067135;28;20048;-55
2021/10/22 04:51:52;;;;;;;3.97;2.08;;;;;;;;;;5066141;28;20461;-55
2021/10/22 04:54:18;;;;;;;7.25;2.78;;;;;;;;;;5069773;28;20037;-55
2021/10/22 04:56:45;;;;;;;8.18;3.22;;;;;;;;;;5069483;28;20055;-55
2021/10/22 04:59:12;;;;;;;6.40;2.60;;;;;;;;;;5068707;28;20048;-55
2021/10/22 05:01:39;;;;;;;6.22;3.83;;;;;;;;;;5068863;28;20501;-55
2021/10/22 05:04:05;;;;;;;5.90;3.10;;;;;;;;;;5069722;28;20384;-55
2021/10/22 05:06:32;;;;;;;3.65;3.33;;;;;;;;;;5069608;28;20048;-55
2021/10/22 05:08:59;;;;;;;2.72;2.40;;;;;;;;;;5068125;28;20048;-55
2021/10/22 05:11:26;;;;;;;4.13;2.70;;;;;;;;;;5068439;28;20056;-55
2021/10/22 05:13:52;;;;;;;6.05;2.78;;;;;;;;;;5069017;28;20037;-56
2021/10/22 05:16:19;;;;;;;3.40;2.60;;;;;;;;;;5055328;28;20055;-55
2021/10/22 05:18:46;;;;;;;4.93;2.90;;;;;;;;;;5067678;28;20496;-55
2021/10/22 05:21:13;;;;;;;11.05;4.20;;;;;;;;;;5067958;28;20376;-55
2021/10/22 05:23:40;;;;;;;3.10;2.80;;;;;;;;;;5058771;28;20322;-55
2021/10/22 05:26:07;;;;;;;2.83;2.63;;;;;;;;;;5062689;28;20083;-55
2021/10/22 05:28:34;;;;;;;8.90;4.75;;;;;;;;;;5068443;28;20044;-55
2021/10/22 05:31:00;;;;;;;4.35;3.22;;;;;;;;;;5063380;28;20039;-55
2021/10/22 05:33:27;;;;;;;4.63;2.38;;;;;;;;;;5057637;28;20040;-55
2021/10/22 05:35:54;;;;;;;4.22;2.83;;;;;;;;;;5064765;28;20060;-55
2021/10/22 05:38:21;;;;;;;3.25;3.08;;;;;;;;;;5064776;28;20536;-56
2021/10/22 05:40:47;;;;;;;4.97;2.50;;;;;;;;;;5068922;28;20056;-55
2021/10/22 05:43:14;;;;;;;5.97;3.40;;;;;;;;;;5069540;28;20048;-55
2021/10/22 05:45:41;;;;;;;6.78;2.85;;;;;;;;;;5067687;28;20075;-55
2021/10/22 05:48:08;;;;;;;3.90;3.05;;;;;;;;;;5065254;28;20067;-55
2021/10/22 05:50:35;;;;;;;3.83;2.72;;;;;;;;;;5062431;28;20032;-55
2021/10/22 05:53:02;;;;;;;3.70;3.28;;;;;;;;;;5068931;28;20461;-55
2021/10/22 05:55:29;;;;;;;8.60;4.00;;;;;;;;;;5068723;28;20435;-54
2021/10/22 05:57:56;;;;;;;6.50;3.35;;;;;;;;;;5067164;28;20036;-55
2021/10/22 06:00:23;;;;;;;8.00;3.85;;;;;;;;;;5068521;28;20114;-55
2021/10/22 06:02:51;;;;;;;5.00;2.88;;;;;;;;;;5057736;28;20071;-55
2021/10/22 06:05:18;;;;;;;7.25;3.00;;;;;;;;;;5058403;28;20492;-54
2021/10/22 06:07:44;;;;;;;4.80;2.97;;;;;;;;;;5059795;28;20358;-55
2021/10/22 06:10:11;;;;;;;3.45;3.17;;;;;;;;;;5068074;28;20492;-55
2021/10/22 06:12:38;;;;;;;5.15;3.00;;;;;;;;;;5066685;28;20037;-54
2021/10/22 06:15:05;;;;;;;3.08;2.85;;;;;;;;;;5061865;28;20070;-55
2021/10/22 06:17:32;;;;;;;8.65;3.10;;;;;;;;;;5067361;28;20171;-55
2021/10/22 06:20:07;;;;;;;5.35;4.90;;;;;;;;;;5061399;28;20680;-56
2021/10/22 06:22:40;;;;;;;5.32;3.63;;;;;;;;;;5069474;28;20044;-54
2021/10/22 06:25:13;;;;;;;5.15;3.08;;;;;;;;;;5066603;28;20522;-56
2021/10/22 06:27:41;;;;;;;3.95;3.25;;;;;;;;;;5062522;28;20071;-55
2021/10/22 06:30:08;;;;;;;4.80;2.67;;;;;;;;;;5063725;28;20037;-55
2021/10/22 06:32:34;;;;;;;8.02;2.85;;;;;;;;;;5058648;28;20035;-55
2021/10/22 06:35:01;;;;;;;8.88;2.78;;;;;;;;;;5069055;28;20032;-55
2021/10/22 06:37:28;;;;;;;3.78;2.65;;;;;;;;;;5067759;28;20044;-55
2021/10/22 06:39:55;;;;;;;3.70;3.20;;;;;;;;;;5065692;28;20044;-56
2021/10/22 06:42:22;;;;;;;6.47;2.80;;;;;;;;;;5066792;28;20067;-56
2021/10/22 06:44:49;;;;;;;4.15;3.22;;;;;;;;;;5066641;28;20037;-55
2021/10/22 06:47:16;;;;;;;3.50;3.05;;;;;;;;;;5068492;28;20055;-55
2021/10/22 06:49:42;;;;;;;2.63;2.22;;;;;;;;;;5067610;28;20068;-56
2021/10/22 06:52:09;;;;;;;3.83;3.20;;;;;;;;;;5067693;28;20041;-55
2021/10/22 06:54:36;;;;;;;5.18;2.55;;;;;;;;;;5068547;28;20064;-55
2021/10/22 06:57:04;;;;;;;5.47;3.75;;;;;;;;;;5064437;28;20389;-56
2021/10/22 06:59:30;;;;;;;3.15;2.80;;;;;;;;;;5057247;28;20030;-56
2021/10/22 07:01:57;;;;;;;6.93;4.63;;;;;;;;;;5065422;28;20103;-56
2021/10/22 07:04:24;;;;;;;9.52;6.82;;;;;;;;;;5071294;28;20587;-56
2021/10/22 07:07:14;;;;;;;10.18;7.50;;;;;;;;;;5069347;28;20041;-56
2021/10/22 07:09:42;;;;;;;9.57;8.70;;;;;;;;;;5065679;28;20045;-56
2021/10/22 07:12:09;;;;;;;8.38;6.75;;;;;;;;;;5061908;28;20041;-56
2021/10/22 07:14:37;;;;;;;10.82;5.75;;;;;;;;;;5066146;28;20043;-56
2021/10/22 07:17:04;;;;;;;5.57;4.55;;;;;;;;;;5071957;28;20044;-55
2021/10/22 07:19:32;;;;;;;12.23;6.25;;;;;;;;;;5069478;28;20480;-56
2021/10/22 07:22:05;;;;;;;8.90;6.63;;;;;;;;;;5066545;28;20040;-55
2021/10/22 07:24:32;;;;;;;8.20;7.38;;;;;;;;;;5070732;28;20122;-56
2021/10/22 07:27:00;;;;;;;9.00;8.23;;;;;;;;;;5068966;28;20040;-56
2021/10/22 07:29:27;;;;;;;11.38;6.80;;;;;;;;;;5072117;28;20052;-56
2021/10/22 07:31:54;;;;;;;6.60;6.30;;;;;;;;;;5068633;28;20040;-56
2021/10/22 07:34:22;;;;;;;7.13;6.47;;;;;;;;;;5067823;28;20045;-55
2021/10/22 07:36:49;;;;;;;6.50;5.85;;;;;;;;;;5068911;28;20055;-54
2021/10/22 07:39:17;;;;;;;9.88;6.82;;;;;;;;;;5068913;28;20663;-56
2021/10/22 07:42:04;;;;;;;7.10;6.25;;;;;;;;;;5070977;28;20041;-55
2021/10/22 07:44:49;;;;;;;6.70;5.70;;;;;;;;;;5068891;28;20040;-55
2021/10/22 07:47:16;;;;;;;6.80;6.18;;;;;;;;;;5061660;28;20048;-55
2021/10/22 07:49:47;;;;;;;9.05;8.23;;;;;;;;;;5069964;28;20086;-55
2021/10/22 07:52:15;;;;;;;7.30;6.47;;;;;;;;;;5069189;28;20048;-55
2021/10/22 07:54:42;;;;;;;4.85;4.18;;;;;;;;;;5068774;28;20045;-54
2021/10/22 07:57:09;;;;;;;3.40;1.98;;;;;;;;;;5069289;28;20044;-55
2021/10/22 07:59:36;;;;;;;2.53;1.00;;;;;;;;;;5069646;28;20032;-55
2021/10/22 08:02:10;;;;;;;0.90;0.90;;;;;;;;;;5071664;28;20047;-55
2021/10/22 08:04:41;;;;;;;1.13;1.00;;;;;;;;;;5064716;28;20124;-54
2021/10/22 08:07:08;;;;;;;1.65;1.00;;;;;;;;;;5069687;28;20048;-54
2021/10/22 08:09:34;;;;;;;1.10;1.10;;;;;;;;;;5070485;28;20101;-55
2021/10/22 08:12:02;;;;;;;1.35;1.33;;;;;;;;;;5068943;28;20377;-54
2021/10/22 08:14:29;;;;;;;1.33;1.33;;;;;;;;;;5070052;28;20049;-54
2021/10/22 08:16:55;;;;;;;2.03;1.70;;;;;;;;;;5067303;28;20107;-56
2021/10/22 08:19:26;;;;;;;5.55;3.47;;;;;;;;;;5059210;28;20406;-54
2021/10/22 08:24:33;;;;;;;1.65;1.48;;;;;;;;;;5068824;28;20041;-55
2021/10/22 08:27:00;;;;;;;1.25;1.15;;;;;;;;;;5070518;28;20050;-54
2021/10/22 08:29:27;;;;;;;1.30;1.20;;;;;;;;;;5068399;28;20036;-55
2021/10/22 08:31:54;;;;;;;1.10;1.10;;;;;;;;;;5070672;28;20048;-55
2021/10/22 08:34:21;;;;;;;2.40;1.10;;;;;;;;;;5064881;28;20033;-55
2021/10/22 08:36:48;;;;;;;2.03;1.13;;;;;;;;;;5055782;28;20086;-55
2021/10/22 08:39:16;;;;;;;1.20;1.10;;;;;;;;;;5069333;28;20064;-55
2021/10/22 08:41:45;;;;;;;3.70;1.50;;;;;;;;;;5069885;28;20373;-54
2021/10/22 08:44:12;;;;;;;1.60;1.60;;;;;;;;;;5069281;28;20134;-54
2021/10/22 08:46:40;;;;;;;1.27;1.10;;;;;;;;;;5068298;28;20053;-55
2021/10/22 08:49:12;;;;;;;2.05;1.95;;;;;;;;;;5068898;28;20052;-55
2021/10/22 08:51:42;;;;;;;1.40;1.40;;;;;;;;;;5069393;28;20496;-55
2021/10/22 08:54:11;;;;;;;3.80;1.55;;;;;;;;;;5068216;28;20052;-54
2021/10/22 08:56:41;;;;;;;2.33;1.00;;;;;;;;;;5067960;28;20062;-54
2021/10/22 08:59:08;;;;;;;2.55;1.08;;;;;;;;;;5067153;28;20033;-54
2021/10/22 09:01:57;;;;;;;0.93;0.93;;;;;;;;;;5068665;28;20040;-54
2021/10/22 09:04:33;;;;;;;1.00;1.00;;;;;;;;;;5066362;28;20047;-53
2021/10/22 09:07:00;;;;;;;0.90;0.80;;;;;;;;;;5066011;28;20044;-54
2021/10/22 09:09:27;;;;;;;0.90;0.90;;;;;;;;;;5067358;28;20037;-55
2021/10/22 09:11:54;;;;;;;0.90;0.90;;;;;;;;;;5068018;28;20132;-55
2021/10/22 09:14:21;;;;;;;1.52;1.52;;;;;;;;;;5069174;28;20052;-53
2021/10/22 09:16:49;;;;;;;3.20;0.90;;;;;;;;;;5070699;28;20080;-54
2021/10/22 09:19:28;;;;;;;0.80;0.80;;;;;;;;;;5066403;28;20025;-55
2021/10/22 09:21:57;;;;;;;1.27;1.17;;;;;;;;;;5067443;28;20094;-53
2021/10/22 09:24:26;;;;;;;0.90;0.90;;;;;;;;;;5067900;28;20080;-55
2021/10/22 09:26:54;;;;;;;1.10;1.00;;;;;;;;;;5069614;28;20043;-53
2021/10/22 09:29:22;;;;;;;1.30;1.30;;;;;;;;;;5060196;28;20045;-54
2021/10/22 09:31:49;;;;;;;2.22;1.13;;;;;;;;;;5061036;28;20033;-55
2021/10/22 09:34:37;;;;;;;4.07;1.13;;;;;;;;;;5070397;28;20039;-55
2021/10/22 09:37:04;;;;;;;1.20;1.15;;;;;;;;;;5068686;28;20482;-55
2021/10/22 09:39:34;;;;;;;1.02;1.02;;;;;;;;;;5065871;28;20181;-55
2021/10/22 09:42:01;;;;;;;1.00;1.00;;;;;;;;;;5062782;28;20044;-55
2021/10/22 09:44:40;;;;;;;1.20;1.20;;;;;;;;;;5066394;28;20060;-55
2021/10/22 09:47:07;;;;;;;1.20;1.20;;;;;;;;;;5067948;28;20048;-55
2021/10/22 09:49:35;;;;;;;1.38;1.35;;;;;;;;;;5064577;28;20044;-56
2021/10/22 09:52:03;;;;;;;1.02;1.02;;;;;;;;;;5065902;28;20055;-56
2021/10/22 09:54:31;;;;;;;1.58;1.58;;;;;;;;;;5066780;28;20044;-56
2021/10/22 09:57:04;;;;;;;1.73;1.63;;;;;;;;;;5066470;28;20075;-55
2021/10/22 09:59:31;;;;;;;1.58;1.58;;;;;;;;;;5066522;28;20123;-55
2021/10/22 10:01:58;;;;;;;2.15;2.05;;;;;;;;;;5063991;28;20044;-55
2021/10/22 10:04:30;;;;;;;1.42;1.25;;;;;;;;;;5065323;28;20068;-55
2021/10/22 10:07:00;;;;;;;2.78;1.13;;;;;;;;;;5067096;28;20053;-54
2021/10/22 10:09:28;;;;;;;1.27;1.27;;;;;;;;;;5064637;28;20033;-55
2021/10/22 10:11:58;;;;;;;1.20;1.08;;;;;;;;;;5069392;28;20507;-56
2021/10/22 10:14:29;;;;;;;1.98;1.98;;;;;;;;;;5064057;28;20127;-54
2021/10/22 10:16:58;;;;;;;2.67;1.13;;;;;;;;;;5062037;28;20037;-55
2021/10/22 10:19:31;;;;;;;1.00;1.00;;;;;;;;;;5064129;28;20047;-55
2021/10/22 10:22:02;;;;;;;1.13;0.93;;;;;;;;;;5056912;28;20294;-56
2021/10/22 10:24:31;;;;;;;1.20;1.10;;;;;;;;;;5066168;28;20090;-55
2021/10/22 10:27:01;;;;;;;1.35;0.95;;;;;;;;;;5066680;28;20049;-56
2021/10/22 10:29:29;;;;;;;1.00;1.00;;;;;;;;;;5063468;28;20077;-55
2021/10/22 10:32:00;;;;;;;1.15;1.00;;;;;;;;;;5066251;28;20423;-54
2021/10/22 10:34:30;;;;;;;1.30;1.20;;;;;;;;;;5067160;28;20094;-55
2021/10/22 10:37:07;;;;;;;1.40;1.40;;;;;;;;;;5071290;28;20033;-55
2021/10/22 10:39:46;;;;;;;2.50;1.00;;;;;;;;;;5067428;28;20037;-55
2021/10/22 10:42:19;;;;;;;0.93;0.93;;;;;;;;;;5056218;28;20439;-55
2021/10/22 10:44:47;;;;;;;1.30;1.30;;;;;;;;;;5072198;28;20044;-54
2021/10/22 10:47:26;;;;;;;2.47;2.38;;;;;;;;;;5062065;28;20044;-56
2021/10/22 10:49:53;;;;;;;2.58;2.42;;;;;;;;;;5055362;28;20120;-55
2021/10/22 10:52:38;;;;;;;1.50;1.38;;;;;;;;;;5068410;28;20060;-56
2021/10/22 10:55:15;;;;;;;1.10;1.10;;;;;;;;;;5070221;28;20036;-55
2021/10/22 10:57:49;;;;;;;1.10;1.10;;;;;;;;;;5071011;28;20040;-55
2021/10/22 11:00:17;;;;;;;1.30;1.30;;;;;;;;;;5066410;28;20499;-55
2021/10/22 11:03:08;;;;;;;3.22;3.00;;;;;;;;;;5072123;28;20131;-56
2021/10/22 11:05:47;;;;;;;1.70;1.60;;;;;;;;;;5066026;28;20052;-56
2021/10/22 11:08:36;;;;;;;1.20;1.10;;;;;;;;;;5066748;28;20044;-56
2021/10/22 11:11:12;;;;;;;1.20;1.20;;;;;;;;;;5055831;28;20060;-56
2021/10/22 11:13:59;;;;;;;2.00;2.00;;;;;;;;;;5064685;28;20044;-55
2021/10/22 11:16:32;;;;;;;1.98;1.95;;;;;;;;;;5054110;28;20045;-55
2021/10/22 11:19:01;;;;;;;1.30;1.30;;;;;;;;;;5059503;28;20098;-56
2021/10/22 11:21:28;;;;;;;1.17;1.17;;;;;;;;;;5068071;28;20044;-56
2021/10/22 11:23:56;;;;;;;1.30;1.30;;;;;;;;;;5054645;28;20049;-56
2021/10/22 11:26:23;;;;;;;1.40;0.95;;;;;;;;;;5068214;28;20098;-56
2021/10/22 11:28:51;;;;;;;1.00;1.00;;;;;;;;;;5056628;28;20048;-56
2021/10/22 11:31:34;;;;;;;0.90;0.90;;;;;;;;;;5068502;28;20493;-55
2021/10/22 11:34:02;;;;;;;0.90;0.90;;;;;;;;;;5065912;28;20037;-56
2021/10/22 11:36:31;;;;;;;1.48;1.08;;;;;;;;;;5061466;28;20056;-56
2021/10/22 11:38:59;;;;;;;0.90;0.90;;;;;;;;;;5066722;28;20051;-56
2021/10/22 11:41:25;;;;;;;1.45;1.00;;;;;;;;;;5062527;28;20053;-56
2021/10/22 11:44:03;;;;;;;1.05;1.05;;;;;;;;;;5070637;28;20048;-56
2021/10/22 11:46:40;;;;;;;0.70;0.70;;;;;;;;;;5067329;28;20094;-55
2021/10/22 11:49:07;;;;;;;0.70;0.70;;;;;;;;;;5070297;28;20037;-54
2021/10/22 11:51:34;;;;;;;0.80;0.80;;;;;;;;;;5069800;28;20033;-56
2021/10/22 11:54:01;;;;;;;0.80;0.80;;;;;;;;;;5062795;28;20045;-55
2021/10/22 11:56:32;;;;;;;1.08;1.08;;;;;;;;;;5070996;28;20044;-55
2021/10/22 11:58:58;;;;;;;1.15;1.00;;;;;;;;;;5068587;28;20036;-55
2021/10/22 12:01:26;;;;;;;1.10;1.10;;;;;;;;;;5068714;28;20451;-55
2021/10/22 12:03:56;;;;;;;1.10;1.10;;;;;;;;;;5069888;28;20044;-54
2021/10/22 12:06:26;;;;;;;1.20;1.20;;;;;;;;;;5070541;28;20472;-55
2021/10/22 12:08:54;;;;;;;1.20;1.10;;;;;;;;;;5070835;28;20036;-54
2021/10/22 12:11:23;;;;;;;1.08;1.08;;;;;;;;;;5068048;28;20113;-55
2021/10/22 12:13:50;;;;;;;1.65;1.38;;;;;;;;;;5070877;28;20079;-54
2021/10/22 12:16:18;;;;;;;1.00;1.00;;;;;;;;;;5068713;28;20041;-55
2021/10/22 12:18:45;;;;;;;1.00;1.00;;;;;;;;;;5068952;28;20044;-54
2021/10/22 12:21:12;;;;;;;1.10;0.80;;;;;;;;;;5065832;28;20033;-42
2021/10/22 12:23:39;;;;;;;0.90;0.90;;;;;;;;;;5065488;28;20038;-43
2021/10/22 12:26:22;;;;;;;1.58;1.48;;;;;;;;;;5070219;28;20040;-44
2021/10/22 12:28:57;;;;;;;0.95;0.80;;;;;;;;;;5069743;28;20049;-46
2021/10/22 12:31:50;;;;;;;0.80;0.80;;;;;;;;;;5068786;28;20068;-43
2021/10/22 12:34:26;;;;;;;0.87;0.87;;;;;;;;;;5060534;28;20053;-42
2021/10/22 12:37:07;;;;;;;0.80;0.80;;;;;;;;;;5069758;28;22598;-41
2021/10/22 12:39:39;;;;;;;1.00;1.00;;;;;;;;;;5067678;28;20049;-42
2021/10/22 12:42:18;;;;;;;1.00;1.00;;;;;;;;;;5070785;28;20484;-45
2021/10/22 12:44:45;;;;;;;1.67;1.58;;;;;;;;;;5068245;28;20037;-43
2021/10/22 12:47:12;;;;;;;2.92;2.72;;;;;;;;;;5061669;28;20642;-45
2021/10/22 12:49:39;;;;;;;0.88;0.88;;;;;;;;;;5063589;28;20447;-43
2021/10/22 12:52:06;;;;;;;0.90;0.90;;;;;;;;;;5056873;28;20036;-44
2021/10/22 12:54:46;;;;;;;1.00;1.00;;;;;;;;;;5070341;28;20036;-43
2021/10/22 12:57:24;;;;;;;0.90;0.90;;;;;;;;;;5068698;28;20044;-43
2021/10/22 12:59:56;;;;;;;1.00;1.00;;;;;;;;;;5064799;28;20522;-42
2021/10/22 13:02:24;;;;;;;2.13;0.90;;;;;;;;;;5066916;28;20036;-42
2021/10/22 13:05:12;;;;;;;0.85;0.85;;;;;;;;;;5067020;28;20048;-44
2021/10/22 13:11:22;;;;;;;2.00;1.40;;;;;;;;;;5067444;28;20098;-43
2021/10/22 13:20:58;;;;;;;1.15;1.05;;;;;;;;;;5068352;28;20036;-44
2021/10/22 13:23:25;;;;;;;0.90;0.90;;;;;;;;;;5067238;28;20044;-43
2021/10/22 13:25:52;;;;;;;0.90;0.90;;;;;;;;;;5067483;28;20440;-46
2021/10/22 13:28:22;;;;;;;1.00;1.00;;;;;;;;;;5069995;28;20044;-43
2021/10/22 13:31:02;;;;;;;1.20;1.15;;;;;;;;;;5068452;28;20540;-43
2021/10/22 13:33:29;;;;;;;1.10;1.10;;;;;;;;;;5066839;28;20041;-41
2021/10/22 13:35:56;;;;;;;0.90;0.90;;;;;;;;;;5068030;28;20724;-42
2021/10/22 13:38:23;;;;;;;1.00;1.00;;;;;;;;;;5068696;28;20492;-43
2021/10/22 13:40:50;;;;;;;1.00;1.00;;;;;;;;;;5070276;28;20072;-43
2021/10/22 13:43:17;;;;;;;4.13;2.78;;;;;;;;;;5067070;28;20041;-44
2021/10/22 13:45:45;;;;;;;1.70;1.60;;;;;;;;;;5062375;28;20036;-43
2021/10/22 13:48:12;;;;;;;1.30;1.30;;;;;;;;;;5067738;28;20089;-41
2021/10/22 13:50:38;;;;;;;2.30;1.15;;;;;;;;;;5067599;28;20048;-42
2021/10/22 13:53:05;;;;;;;1.08;1.08;;;;;;;;;;5070369;28;20063;-43
2021/10/22 13:55:33;;;;;;;1.20;1.10;;;;;;;;;;5065357;28;20071;-45
2021/10/22 13:57:59;;;;;;;2.20;2.10;;;;;;;;;;5068370;28;20032;-43
2021/10/22 14:00:26;;;;;;;2.63;1.10;;;;;;;;;;5068009;28;20049;-42
2021/10/22 14:02:53;;;;;;;3.25;0.98;;;;;;;;;;5068813;28;20060;-43
2021/10/22 14:05:20;;;;;;;1.15;0.90;;;;;;;;;;5069775;28;20040;-43
2021/10/22 14:07:46;;;;;;;1.45;1.35;;;;;;;;;;5067096;28;20106;-45
2021/10/22 14:10:13;;;;;;;1.10;1.10;;;;;;;;;;5072251;28;20037;-42
2021/10/22 14:12:43;;;;;;;0.80;0.80;;;;;;;;;;5068510;28;20095;-42
2021/10/22 14:30:57;;;;;;;1.10;1.10;;;;;;;;;;5072818;28;20048;-45
2021/10/22 14:33:23;;;;;;;1.00;1.00;;;;;;;;;;5070623;28;20052;-46
2021/10/22 14:35:50;;;;;;;1.65;0.80;;;;;;;;;;5066689;28;20033;-42
2021/10/22 14:38:17;;;;;;;2.58;1.00;;;;;;;;;;5071584;28;20481;-44
2021/10/22 14:40:44;;;;;;;2.05;1.00;;;;;;;;;;5072223;28;20090;-45
2021/10/22 14:43:15;;;;;;;1.25;0.90;;;;;;;;;;5071791;28;20033;-42
2021/10/22 14:45:50;;;;;;;1.63;1.52;;;;;;;;;;5067571;28;20041;-43
2021/10/22 14:48:21;;;;;;;2.03;1.23;;;;;;;;;;5066323;28;20371;-43
2021/10/22 14:50:48;;;;;;;2.22;1.50;;;;;;;;;;5072440;28;20072;-44
2021/10/22 14:53:39;;;;;;;1.65;1.55;;;;;;;;;;5071778;28;20041;-44
2021/10/22 14:56:05;;;;;;;2.95;1.70;;;;;;;;;;5072164;28;20039;-43
2021/10/22 14:58:32;;;;;;;1.85;1.48;;;;;;;;;;5067142;28;20484;-42
2021/10/22 15:01:03;;;;;;;1.48;1.38;;;;;;;;;;5069158;28;20508;-43
2021/10/22 15:03:30;;;;;;;1.40;1.30;;;;;;;;;;5071329;28;20043;-43
2021/10/22 15:05:58;;;;;;;2.90;1.63;;;;;;;;;;5072704;28;20044;-46
2021/10/22 15:08:24;;;;;;;4.82;1.55;;;;;;;;;;5056044;28;20048;-45
2021/10/22 15:10:51;;;;;;;1.30;1.20;;;;;;;;;;5069505;28;20036;-43
2021/10/22 15:13:19;;;;;;;1.67;1.58;;;;;;;;;;5070812;28;20036;-43
2021/10/22 15:15:46;;;;;;;1.30;1.30;;;;;;;;;;5062496;28;20041;-41
2021/10/22 15:18:13;;;;;;;1.98;1.20;;;;;;;;;;5066175;28;20365;-41
2021/10/22 15:20:40;;;;;;;1.30;1.30;;;;;;;;;;5071740;28;20063;-41
2021/10/22 15:23:07;;;;;;;3.40;1.92;;;;;;;;;;5067502;28;20059;-42
2021/10/22 15:25:34;;;;;;;2.35;1.20;;;;;;;;;;5070748;28;20058;-42